Time;durP1;ratioP1;P1;durP2;ratioP2;P2;SDS_P1;SDS_P2;PMS_P1;PMS_P2;Temp;Humidity;BMP_temperature;BMP_pressure;BME280_temperature;BME280_humidity;BME280_pressure;Samples;Min_cycle;Max_cycle;Signal;HPM_P1;HPM_P2
2022/10/11 00:02:22;;;;;;;7.80;4.97;;;14.40;99.90;;;;;;5053797;28;20396;-72
2022/10/11 00:04:52;;;;;;;8.50;4.60;;;14.30;99.90;;;;;;5062329;28;20490;-72
2022/10/11 00:07:18;;;;;;;6.27;4.70;;;14.30;99.90;;;;;;5062644;28;20435;-73
2022/10/11 00:09:44;;;;;;;6.53;4.07;;;14.40;99.90;;;;;;5058437;28;20405;-73
2022/10/11 00:12:10;;;;;;;7.90;4.30;;;14.30;99.90;;;;;;5042601;28;20891;-72
2022/10/11 00:14:37;;;;;;;8.77;4.72;;;14.30;99.90;;;;;;5054755;28;20557;-72
2022/10/11 00:17:03;;;;;;;9.73;4.67;;;14.20;99.90;;;;;;5059370;28;20777;-73
2022/10/11 00:19:28;;;;;;;8.83;4.60;;;14.20;99.90;;;;;;5056895;28;20404;-73
2022/10/11 00:21:54;;;;;;;8.40;4.23;;;14.20;99.90;;;;;;5044283;28;20486;-73
2022/10/11 00:24:19;;;;;;;7.20;4.70;;;14.20;99.90;;;;;;5057513;28;20430;-73
2022/10/11 00:26:45;;;;;;;6.22;5.30;;;14.10;99.90;;;;;;5055863;28;20416;-73
2022/10/11 00:29:11;;;;;;;8.50;4.87;;;14.00;99.90;;;;;;5062462;28;20403;-72
2022/10/11 00:31:37;;;;;;;6.10;4.53;;;14.00;99.90;;;;;;5061742;28;20419;-72
2022/10/11 00:34:03;;;;;;;8.15;4.35;;;14.10;99.90;;;;;;5058008;28;20775;-72
2022/10/11 00:36:28;;;;;;;9.37;4.43;;;14.20;99.90;;;;;;5058060;28;20407;-72
2022/10/11 00:38:54;;;;;;;8.83;5.40;;;14.10;99.90;;;;;;5057836;28;20399;-72
2022/10/11 00:41:19;;;;;;;6.28;4.18;;;14.10;99.90;;;;;;5039819;28;20438;-72
2022/10/11 00:43:45;;;;;;;6.60;4.80;;;14.00;99.90;;;;;;5065497;28;20879;-72
2022/10/11 00:46:16;;;;;;;9.33;4.80;;;14.10;99.90;;;;;;5061856;28;20414;-72
2022/10/11 00:48:49;;;;;;;6.80;4.82;;;14.00;99.90;;;;;;5065007;28;20463;-71
2022/10/11 00:51:30;;;;;;;5.70;4.95;;;13.90;99.90;;;;;;5062154;28;20452;-71
2022/10/11 00:53:55;;;;;;;8.45;5.30;;;13.90;99.90;;;;;;5063707;28;20446;-72
2022/10/11 00:56:30;;;;;;;5.07;4.00;;;13.90;99.90;;;;;;5063746;28;20461;-72
2022/10/11 00:58:58;;;;;;;9.07;4.35;;;13.90;99.90;;;;;;5062824;28;20719;-71
2022/10/11 01:01:24;;;;;;;6.70;4.43;;;13.90;99.90;;;;;;5063974;28;20407;-71
2022/10/11 01:03:50;;;;;;;5.70;3.67;;;13.90;99.90;;;;;;5061301;28;20430;-71
2022/10/11 01:06:15;;;;;;;8.40;4.40;;;13.90;99.90;;;;;;5056318;28;20438;-71
2022/10/11 01:08:42;;;;;;;8.95;4.30;;;13.90;99.90;;;;;;5063775;28;20456;-72
2022/10/11 01:11:16;;;;;;;6.77;4.03;;;13.80;99.90;;;;;;5060163;28;20782;-71
2022/10/11 01:13:50;;;;;;;8.25;4.55;;;13.70;99.90;;;;;;5045555;28;20490;-71
2022/10/11 01:16:27;;;;;;;8.20;4.50;;;13.70;99.90;;;;;;5061834;28;20487;-71
2022/10/11 01:19:21;;;;;;;6.85;4.60;;;13.70;99.90;;;;;;5061108;28;20409;-72
2022/10/11 01:22:07;;;;;;;8.35;4.53;;;13.60;99.90;;;;;;5063002;28;20494;-72
2022/10/11 01:25:00;;;;;;;8.55;4.90;;;13.60;99.90;;;;;;5065714;28;20442;-71
2022/10/11 01:27:47;;;;;;;7.00;4.30;;;13.60;99.90;;;;;;5057424;28;20503;-72
2022/10/11 01:30:23;;;;;;;8.03;4.90;;;13.50;99.90;;;;;;5056872;28;21129;-72
2022/10/11 01:32:58;;;;;;;10.13;4.82;;;13.50;99.90;;;;;;5040103;28;20428;-72
2022/10/11 01:35:36;;;;;;;10.93;5.05;;;13.50;99.90;;;;;;5060528;28;20902;-72
2022/10/11 01:38:10;;;;;;;7.82;4.68;;;13.50;99.90;;;;;;5058807;28;20424;-72
2022/10/11 01:40:44;;;;;;;6.70;4.40;;;13.50;99.90;;;;;;5041647;28;20404;-72
2022/10/11 01:43:11;;;;;;;6.03;4.20;;;13.50;99.90;;;;;;5054078;28;20401;-72
2022/10/11 01:45:38;;;;;;;8.20;4.35;;;13.50;99.90;;;;;;5041366;28;20393;-72
2022/10/11 01:48:06;;;;;;;6.63;4.35;;;13.50;99.90;;;;;;5067145;28;20399;-72
2022/10/11 01:50:40;;;;;;;7.63;3.90;;;13.60;99.90;;;;;;5059082;28;20484;-72
2022/10/11 01:53:29;;;;;;;5.82;4.15;;;13.50;99.90;;;;;;5059297;28;20401;-72
2022/10/11 01:56:23;;;;;;;5.35;4.00;;;13.50;99.90;;;;;;5059780;28;20407;-72
2022/10/11 01:59:06;;;;;;;5.30;4.00;;;13.50;99.90;;;;;;5064748;28;20449;-72
2022/10/11 02:02:13;;;;;;;6.63;4.50;;;13.40;99.90;;;;;;5052203;28;20492;-72
2022/10/11 02:04:50;;;;;;;8.13;3.97;;;13.40;99.90;;;;;;5031073;28;20471;-72
2022/10/11 02:07:47;;;;;;;8.75;4.85;;;13.30;99.90;;;;;;5059455;28;20476;-72
2022/10/11 02:10:25;;;;;;;7.97;4.82;;;13.40;99.90;;;;;;5067093;28;20412;-72
2022/10/11 02:13:08;;;;;;;5.60;4.03;;;13.40;99.90;;;;;;5059120;28;20954;-72
2022/10/11 02:15:37;;;;;;;6.40;4.20;;;13.50;99.90;;;;;;5048367;28;20499;-72
2022/10/11 02:18:08;;;;;;;8.25;4.20;;;13.60;99.90;;;;;;5062255;28;20533;-72
2022/10/11 02:20:38;;;;;;;8.85;5.03;;;13.60;99.90;;;;;;5059620;28;20496;-72
2022/10/11 02:23:15;;;;;;;4.80;3.70;;;13.50;99.90;;;;;;5056864;28;20401;-72
2022/10/11 02:25:43;;;;;;;4.90;3.70;;;13.40;99.90;;;;;;5059497;28;20569;-72
2022/10/11 02:28:14;;;;;;;6.65;4.10;;;13.50;99.90;;;;;;5060615;28;20387;-72
2022/10/11 02:30:42;;;;;;;5.90;4.20;;;13.50;99.90;;;;;;5070157;28;20400;-72
2022/10/11 02:33:11;;;;;;;7.22;4.22;;;13.60;99.90;;;;;;5054967;28;20403;-72
2022/10/11 02:35:43;;;;;;;7.32;4.35;;;13.50;99.90;;;;;;5067669;28;20424;-72
2022/10/11 02:38:28;;;;;;;8.23;3.80;;;13.60;99.90;;;;;;5060748;28;20396;-72
2022/10/11 02:41:13;;;;;;;5.43;3.90;;;13.70;99.90;;;;;;5062998;28;20394;-72
2022/10/11 02:43:50;;;;;;;6.90;3.70;;;13.70;99.90;;;;;;5059067;28;20975;-72
2022/10/11 02:46:16;;;;;;;8.50;4.00;;;13.80;99.90;;;;;;5057639;28;20404;-72
2022/10/11 02:48:42;;;;;;;8.93;3.90;;;13.70;99.90;;;;;;5058249;28;20500;-72
2022/10/11 02:51:12;;;;;;;6.82;4.00;;;13.70;99.90;;;;;;5065514;28;20483;-72
2022/10/11 02:53:38;;;;;;;7.30;4.03;;;13.60;99.90;;;;;;5058850;28;20410;-72
2022/10/11 02:56:03;;;;;;;7.03;3.87;;;13.60;99.90;;;;;;5055508;28;20798;-72
2022/10/11 02:58:29;;;;;;;6.93;4.25;;;13.70;99.90;;;;;;5049179;28;20891;-72
2022/10/11 03:00:54;;;;;;;6.70;4.30;;;13.70;99.90;;;;;;5064275;28;20402;-72
2022/10/11 03:03:20;;;;;;;6.40;3.70;;;13.70;99.90;;;;;;5061481;28;20784;-72
2022/10/11 03:05:46;;;;;;;7.78;4.68;;;13.70;99.90;;;;;;5059512;28;20826;-72
2022/10/11 03:08:14;;;;;;;7.82;4.65;;;13.60;99.90;;;;;;5042888;28;20925;-72
2022/10/11 03:10:40;;;;;;;6.63;4.25;;;13.60;99.90;;;;;;5059771;28;20409;-72
2022/10/11 03:13:06;;;;;;;5.90;3.72;;;13.60;99.90;;;;;;5060720;28;20902;-72
2022/10/11 03:15:32;;;;;;;10.18;4.72;;;13.60;99.90;;;;;;5063781;28;20409;-72
2022/10/11 03:17:58;;;;;;;7.20;3.70;;;13.60;99.90;;;;;;5064736;28;20415;-72
2022/10/11 03:20:24;;;;;;;5.68;4.00;;;13.60;99.90;;;;;;5050430;28;20519;-72
2022/10/11 03:22:50;;;;;;;7.20;3.95;;;13.60;99.90;;;;;;5061064;28;20404;-72
2022/10/11 03:25:15;;;;;;;5.68;3.60;;;13.60;99.90;;;;;;5060086;28;20418;-72
2022/10/11 03:27:41;;;;;;;6.55;3.63;;;13.50;99.90;;;;;;5059565;28;20424;-72
2022/10/11 03:30:10;;;;;;;6.93;3.93;;;13.50;99.90;;;;;;5060338;28;20409;-72
2022/10/11 03:32:36;;;;;;;6.07;4.13;;;13.50;99.90;;;;;;5059090;28;20549;-72
2022/10/11 03:35:02;;;;;;;7.07;4.10;;;13.50;99.90;;;;;;5055851;28;20492;-72
2022/10/11 03:37:27;;;;;;;7.40;3.60;;;13.40;99.90;;;;;;5056854;28;20535;-72
2022/10/11 03:39:53;;;;;;;8.53;4.30;;;13.30;99.90;;;;;;5056334;28;20488;-72
2022/10/11 03:42:18;;;;;;;9.40;4.30;;;13.30;99.90;;;;;;5062989;28;21053;-72
2022/10/11 03:44:44;;;;;;;7.10;3.70;;;13.20;99.90;;;;;;5060574;28;20404;-72
2022/10/11 03:47:10;;;;;;;6.15;3.90;;;13.20;99.90;;;;;;5062318;28;20920;-72
2022/10/11 03:49:36;;;;;;;9.60;4.30;;;13.20;99.90;;;;;;5058593;28;20400;-72
2022/10/11 03:52:01;;;;;;;6.53;4.20;;;13.10;99.90;;;;;;5059421;28;20480;-74
2022/10/11 03:54:27;;;;;;;6.87;4.70;;;13.10;99.90;;;;;;5063497;28;20417;-72
2022/10/11 03:56:52;;;;;;;6.43;4.67;;;13.10;99.90;;;;;;5058110;28;20537;-72
2022/10/11 03:59:18;;;;;;;7.03;4.70;;;13.10;99.90;;;;;;5060044;28;20403;-72
2022/10/11 04:01:43;;;;;;;8.57;4.03;;;13.10;99.90;;;;;;5055277;28;20399;-72
2022/10/11 04:04:09;;;;;;;6.30;4.37;;;13.10;99.90;;;;;;5079245;22;20408;-71
2022/10/11 04:06:34;;;;;;;7.78;4.47;;;13.10;99.90;;;;;;5102089;28;20381;-70
2022/10/11 04:09:00;;;;;;;6.55;4.95;;;12.90;99.90;;;;;;5101637;28;20385;-71
2022/10/11 04:11:26;;;;;;;6.72;4.55;;;12.80;99.90;;;;;;5105649;28;20429;-71
2022/10/11 04:13:51;;;;;;;10.33;5.43;;;12.80;99.90;;;;;;5110451;28;20829;-70
2022/10/11 04:16:17;;;;;;;7.00;5.20;;;12.80;99.90;;;;;;5090813;28;20864;-71
2022/10/11 04:18:42;;;;;;;9.88;5.00;;;12.70;99.90;;;;;;5089715;28;20378;-71
2022/10/11 04:21:08;;;;;;;6.67;4.90;;;12.70;99.90;;;;;;5086059;28;20388;-71
2022/10/11 04:23:33;;;;;;;8.10;4.50;;;12.80;99.90;;;;;;5088761;28;20378;-71
2022/10/11 04:26:02;;;;;;;6.95;5.10;;;12.80;99.90;;;;;;5089836;28;20454;-70
2022/10/11 04:28:28;;;;;;;5.93;4.70;;;12.80;99.90;;;;;;5090069;28;20412;-71
2022/10/11 04:30:53;;;;;;;7.97;4.93;;;12.80;99.90;;;;;;5085723;28;20895;-71
2022/10/11 04:33:19;;;;;;;8.70;5.20;;;12.80;99.90;;;;;;5088115;28;20377;-71
2022/10/11 04:35:44;;;;;;;9.02;4.90;;;12.90;99.90;;;;;;5064240;28;20416;-71
2022/10/11 04:38:10;;;;;;;6.90;4.50;;;12.90;99.90;;;;;;5070278;28;20388;-71
2022/10/11 04:40:36;;;;;;;6.97;4.60;;;12.90;99.90;;;;;;5070147;28;20375;-71
2022/10/11 04:43:01;;;;;;;8.80;5.03;;;12.90;99.90;;;;;;5069818;28;20874;-71
2022/10/11 04:45:27;;;;;;;5.93;4.57;;;12.90;99.90;;;;;;5074143;28;20408;-71
2022/10/11 04:47:52;;;;;;;6.38;4.38;;;12.80;99.90;;;;;;5089493;28;20382;-71
2022/10/11 04:50:18;;;;;;;5.13;4.13;;;12.70;99.90;;;;;;5080796;28;20422;-70
2022/10/11 04:52:43;;;;;;;8.37;4.37;;;12.70;99.90;;;;;;5089691;28;20455;-71
2022/10/11 04:55:10;;;;;;;7.10;4.73;;;12.70;99.90;;;;;;5083037;28;20401;-70
2022/10/11 04:57:35;;;;;;;6.80;4.70;;;12.70;99.90;;;;;;5082803;28;20402;-70
2022/10/11 05:00:02;;;;;;;8.17;4.60;;;12.60;99.90;;;;;;5083879;28;20382;-70
2022/10/11 05:02:28;;;;;;;7.47;4.32;;;12.60;99.90;;;;;;5085100;28;20967;-70
2022/10/11 05:04:53;;;;;;;7.27;4.90;;;12.50;99.90;;;;;;5084055;28;20500;-70
2022/10/11 05:07:19;;;;;;;7.40;4.75;;;12.40;99.90;;;;;;5084153;28;20394;-70
2022/10/11 05:09:44;;;;;;;4.35;3.95;;;12.40;99.90;;;;;;5077623;28;20411;-69
2022/10/11 05:12:10;;;;;;;6.00;4.20;;;12.40;99.90;;;;;;5087680;28;20386;-70
2022/10/11 05:14:36;;;;;;;8.47;4.57;;;12.50;99.90;;;;;;5079328;28;20421;-70
2022/10/11 05:17:01;;;;;;;5.93;4.13;;;12.40;99.90;;;;;;5075322;28;20908;-70
2022/10/11 05:19:27;;;;;;;7.80;4.53;;;12.30;99.90;;;;;;5071374;28;20715;-70
2022/10/11 05:21:53;;;;;;;8.87;5.00;;;12.20;99.90;;;;;;5078339;28;20413;-71
2022/10/11 05:24:19;;;;;;;8.88;5.20;;;12.10;99.90;;;;;;5077275;28;20398;-70
2022/10/11 05:26:45;;;;;;;6.60;4.50;;;12.10;99.90;;;;;;5081507;28;20502;-70
2022/10/11 05:29:10;;;;;;;5.07;4.43;;;12.10;99.90;;;;;;5086892;28;20392;-70
2022/10/11 05:31:36;;;;;;;8.50;5.50;;;12.00;99.90;;;;;;5085712;28;20397;-71
2022/10/11 05:34:01;;;;;;;10.10;5.40;;;12.20;99.90;;;;;;5089543;28;20407;-69
2022/10/11 05:36:27;;;;;;;5.37;4.73;;;12.20;99.90;;;;;;5071608;28;20537;-70
2022/10/11 05:38:52;;;;;;;8.30;4.70;;;12.20;99.90;;;;;;5072183;28;20469;-70
2022/10/11 05:41:18;;;;;;;5.80;4.38;;;12.20;99.90;;;;;;5072981;28;20397;-70
2022/10/11 05:43:44;;;;;;;6.33;5.10;;;12.30;99.90;;;;;;5079892;28;20449;-69
2022/10/11 05:46:11;;;;;;;5.57;4.38;;;12.20;99.90;;;;;;5077980;28;20383;-70
2022/10/11 05:48:36;;;;;;;7.68;4.65;;;12.10;99.90;;;;;;5090734;28;20390;-70
2022/10/11 05:51:04;;;;;;;7.77;4.20;;;12.20;99.90;;;;;;5091012;28;20933;-69
2022/10/11 05:53:30;;;;;;;5.80;4.60;;;12.20;99.90;;;;;;5076366;28;20452;-70
2022/10/11 05:55:56;;;;;;;9.20;4.82;;;12.20;99.90;;;;;;5080945;28;20391;-70
2022/10/11 05:58:22;;;;;;;6.50;4.75;;;12.20;99.90;;;;;;5072928;28;20454;-70
2022/10/11 06:00:47;;;;;;;8.13;4.20;;;12.30;99.90;;;;;;5078244;28;20787;-71
2022/10/11 06:03:13;;;;;;;7.32;4.20;;;12.30;99.90;;;;;;5085021;28;20963;-71
2022/10/11 06:05:38;;;;;;;6.57;3.97;;;12.30;99.90;;;;;;5085838;28;20405;-70
2022/10/11 06:08:05;;;;;;;8.37;4.10;;;12.30;99.90;;;;;;5084619;28;20394;-70
2022/10/11 06:10:31;;;;;;;5.38;3.97;;;12.30;99.90;;;;;;5054786;28;20437;-70
2022/10/11 06:12:57;;;;;;;5.85;4.50;;;12.30;99.90;;;;;;5086521;28;20406;-70
2022/10/11 06:15:22;;;;;;;8.17;4.50;;;12.30;99.90;;;;;;5089139;28;20455;-70
2022/10/11 06:17:48;;;;;;;6.32;4.15;;;12.30;99.90;;;;;;5086948;28;20410;-69
2022/10/11 06:20:13;;;;;;;7.03;4.10;;;12.30;99.90;;;;;;5092640;28;20955;-71
2022/10/11 06:22:39;;;;;;;6.83;4.60;;;12.30;99.90;;;;;;5092380;28;20492;-70
2022/10/11 06:25:05;;;;;;;6.13;4.27;;;12.40;99.90;;;;;;5092312;28;20469;-70
2022/10/11 06:27:31;;;;;;;6.43;4.30;;;12.40;99.90;;;;;;5092786;28;20402;-70
2022/10/11 06:29:57;;;;;;;8.60;5.00;;;12.50;99.90;;;;;;5074144;28;20389;-70
2022/10/11 06:32:22;;;;;;;6.80;4.53;;;12.50;99.90;;;;;;5087232;28;20438;-69
2022/10/11 06:34:48;;;;;;;6.40;4.60;;;12.60;99.90;;;;;;5089577;28;20476;-70
2022/10/11 06:37:14;;;;;;;7.18;5.43;;;12.60;99.90;;;;;;5083297;28;20389;-71
2022/10/11 06:39:39;;;;;;;8.73;5.30;;;12.60;99.90;;;;;;5072864;28;20385;-70
2022/10/11 06:42:05;;;;;;;6.77;4.70;;;12.80;99.90;;;;;;5090621;28;20409;-71
2022/10/11 06:44:30;;;;;;;5.70;4.33;;;12.80;99.90;;;;;;5091926;28;20424;-70
2022/10/11 06:46:56;;;;;;;7.25;5.15;;;12.90;99.90;;;;;;5092125;28;20510;-71
2022/10/11 06:49:21;;;;;;;6.20;5.15;;;12.90;99.90;;;;;;5092290;28;20390;-71
2022/10/11 06:51:47;;;;;;;6.80;4.60;;;12.90;99.90;;;;;;5092168;28;20393;-70
2022/10/11 06:54:12;;;;;;;9.20;4.80;;;12.90;99.90;;;;;;5091504;28;20432;-71
2022/10/11 06:56:39;;;;;;;5.95;4.80;;;13.00;99.90;;;;;;5092248;28;20386;-71
2022/10/11 06:59:05;;;;;;;6.80;4.72;;;12.90;99.90;;;;;;5092427;28;20382;-70
2022/10/11 07:01:52;;;;;;;9.75;5.03;;;12.90;99.90;;;;;;5070098;28;20758;-71
2022/10/11 07:04:18;;;;;;;7.17;4.90;;;13.10;99.90;;;;;;5068774;28;20390;-70
2022/10/11 07:06:43;;;;;;;5.83;4.40;;;13.20;99.90;;;;;;5091737;28;20501;-71
2022/10/11 07:09:09;;;;;;;8.00;5.07;;;13.20;99.90;;;;;;5091992;28;20383;-70
2022/10/11 07:11:35;;;;;;;7.43;4.83;;;13.20;99.90;;;;;;5091989;28;20386;-70
2022/10/11 07:14:06;;;;;;;9.70;4.63;;;13.20;99.90;;;;;;5090666;28;20456;-71
2022/10/11 07:16:32;;;;;;;8.18;4.80;;;13.10;99.90;;;;;;5073054;28;20405;-71
2022/10/11 07:18:59;;;;;;;6.03;4.23;;;13.00;99.90;;;;;;5091683;28;20420;-70
2022/10/11 07:21:26;;;;;;;6.30;4.78;;;12.90;99.90;;;;;;5072238;28;20385;-70
2022/10/11 07:23:51;;;;;;;7.88;4.50;;;13.00;99.90;;;;;;5071049;28;20777;-71
2022/10/11 07:26:18;;;;;;;9.77;4.97;;;13.00;99.90;;;;;;5071228;28;20387;-70
2022/10/11 07:28:44;;;;;;;7.20;4.32;;;13.00;99.90;;;;;;5073872;28;20481;-70
2022/10/11 07:31:13;;;;;;;6.10;4.80;;;13.10;99.90;;;;;;5091741;28;20527;-70
2022/10/11 07:33:39;;;;;;;7.53;4.80;;;13.10;99.90;;;;;;5072723;28;20485;-70
2022/10/11 07:36:06;;;;;;;6.23;4.27;;;13.20;99.90;;;;;;5091373;28;20382;-70
2022/10/11 07:38:32;;;;;;;6.07;4.45;;;13.10;99.90;;;;;;5091640;28;20385;-70
2022/10/11 07:40:58;;;;;;;6.15;4.70;;;13.10;99.90;;;;;;5091400;28;20382;-71
2022/10/11 07:43:24;;;;;;;6.57;4.35;;;13.20;99.90;;;;;;5090921;28;20383;-71
2022/10/11 07:45:55;;;;;;;6.75;5.20;;;13.20;99.90;;;;;;5090449;28;20806;-70
2022/10/11 07:48:21;;;;;;;10.03;5.20;;;13.30;99.90;;;;;;5091060;28;20831;-70
2022/10/11 07:50:47;;;;;;;6.67;4.70;;;13.40;99.90;;;;;;5091141;28;20469;-71
2022/10/11 07:53:13;;;;;;;6.10;4.80;;;13.50;99.90;;;;;;5090712;28;20751;-70
2022/10/11 07:55:39;;;;;;;7.70;4.50;;;13.60;99.90;;;;;;5090831;28;20397;-73
2022/10/11 07:58:07;;;;;;;6.50;4.60;;;13.70;99.90;;;;;;5090980;28;20390;-73
2022/10/11 08:00:32;;;;;;;7.97;5.40;;;13.90;99.90;;;;;;5090700;28;20394;-73
2022/10/11 08:03:04;;;;;;;8.60;4.90;;;13.90;99.90;;;;;;5072399;28;20378;-74
2022/10/11 08:05:30;;;;;;;7.32;4.60;;;14.10;99.90;;;;;;5090776;28;20394;-72
2022/10/11 08:07:56;;;;;;;6.50;4.70;;;14.20;99.90;;;;;;5090741;28;20379;-72
2022/10/11 08:10:23;;;;;;;9.25;5.30;;;14.30;99.90;;;;;;5091065;28;20891;-73
2022/10/11 08:12:48;;;;;;;9.85;5.72;;;14.40;99.90;;;;;;5090256;28;20436;-73
2022/10/11 08:15:14;;;;;;;6.93;5.70;;;14.70;99.90;;;;;;5090460;28;20838;-72
2022/10/11 08:17:39;;;;;;;10.20;6.28;;;14.80;99.90;;;;;;5072770;28;20378;-73
2022/10/11 08:20:05;;;;;;;9.50;7.23;;;15.00;99.90;;;;;;5091085;28;20409;-72
2022/10/11 08:22:31;;;;;;;8.80;7.70;;;14.90;99.90;;;;;;5080140;28;20380;-72
2022/10/11 08:24:56;;;;;;;10.17;7.03;;;14.90;99.90;;;;;;5071052;28;20422;-72
2022/10/11 08:27:22;;;;;;;12.60;7.78;;;14.70;99.90;;;;;;5081684;28;20398;-72
2022/10/11 08:29:47;;;;;;;10.80;7.37;;;14.70;99.90;;;;;;5091106;28;20390;-71
2022/10/11 08:32:13;;;;;;;11.27;8.07;;;14.70;99.90;;;;;;5090878;28;20397;-72
2022/10/11 08:34:39;;;;;;;11.70;8.60;;;14.70;99.90;;;;;;5090678;28;20759;-72
2022/10/11 08:37:04;;;;;;;11.82;8.90;;;14.70;99.90;;;;;;5090864;28;20383;-72
2022/10/11 08:39:30;;;;;;;11.38;8.45;;;14.80;99.90;;;;;;5090683;28;20381;-72
2022/10/11 08:42:16;;;;;;;11.43;8.33;;;14.70;99.90;;;;;;5090642;28;20856;-72
2022/10/11 08:44:47;;;;;;;11.07;8.95;;;14.80;99.90;;;;;;5090144;28;20784;-71
2022/10/11 08:47:23;;;;;;;11.00;7.75;;;14.80;99.90;;;;;;5090683;28;20823;-73
2022/10/11 08:49:49;;;;;;;12.57;8.90;;;14.80;99.90;;;;;;5090911;28;20382;-72
2022/10/11 08:52:26;;;;;;;15.00;10.48;;;14.70;99.90;;;;;;5085525;28;20487;-72
2022/10/11 08:54:56;;;;;;;13.88;10.05;;;14.80;99.90;;;;;;5073367;28;20434;-72
2022/10/11 08:57:25;;;;;;;14.52;10.60;;;14.80;99.90;;;;;;5087215;28;20829;-72
2022/10/11 09:00:01;;;;;;;19.33;13.80;;;14.60;99.90;;;;;;5089754;28;20390;-72
2022/10/11 09:02:35;;;;;;;20.90;16.20;;;14.60;99.90;;;;;;5089680;28;21022;-72
2022/10/11 09:05:03;;;;;;;19.73;15.93;;;14.50;99.90;;;;;;5078307;28;20398;-72
2022/10/11 09:07:36;;;;;;;22.90;18.45;;;14.50;99.90;;;;;;5073953;28;20379;-72
2022/10/11 09:10:34;;;;;;;25.80;18.23;;;14.50;99.90;;;;;;5074237;28;20390;-73
2022/10/11 09:13:30;;;;;;;22.70;18.33;;;14.30;99.90;;;;;;5073295;28;20462;-73
2022/10/11 09:16:19;;;;;;;22.10;18.20;;;14.30;99.90;;;;;;5057379;28;20503;-73
2022/10/11 09:19:24;;;;;;;21.05;18.05;;;14.30;99.90;;;;;;5091801;28;20824;-72
2022/10/11 09:22:16;;;;;;;20.88;18.15;;;14.20;99.90;;;;;;5067078;28;20959;-70
2022/10/11 09:25:20;;;;;;;21.77;17.63;;;14.10;99.90;;;;;;5087086;28;20406;-72
2022/10/11 09:28:01;;;;;;;19.02;16.48;;;14.20;99.90;;;;;;5085816;28;20877;-73
2022/10/11 09:30:27;;;;;;;19.60;17.02;;;14.10;99.90;;;;;;5093657;28;20377;-71
2022/10/11 09:33:04;;;;;;;20.13;16.15;;;14.30;99.90;;;;;;5093273;28;21068;-72
2022/10/11 09:35:35;;;;;;;20.85;15.70;;;14.30;99.90;;;;;;5093490;28;20402;-72
2022/10/11 09:38:23;;;;;;;22.02;15.07;;;14.30;99.90;;;;;;5093379;28;20461;-72
2022/10/11 09:41:24;;;;;;;16.63;13.20;;;14.30;99.90;;;;;;5093669;28;20493;-72
2022/10/11 09:43:51;;;;;;;16.15;13.25;;;14.50;99.90;;;;;;5092716;28;20381;-72
2022/10/11 09:46:40;;;;;;;17.15;13.27;;;14.50;99.90;;;;;;5093547;28;20467;-73
2022/10/11 09:49:13;;;;;;;16.50;13.40;;;14.60;99.90;;;;;;5093394;28;20887;-71
2022/10/11 09:51:42;;;;;;;17.58;13.63;;;14.70;99.90;;;;;;5093694;28;20449;-72
2022/10/11 09:54:09;;;;;;;18.88;14.90;;;14.60;99.90;;;;;;5093033;28;20443;-72
2022/10/11 09:56:41;;;;;;;18.80;14.60;;;14.70;99.90;;;;;;5093340;28;20385;-73
2022/10/11 09:59:21;;;;;;;16.77;14.98;;;14.80;99.90;;;;;;5092867;28;20424;-72
2022/10/11 10:01:48;;;;;;;19.38;14.43;;;14.70;99.90;;;;;;5093083;28;20421;-72
2022/10/11 10:04:18;;;;;;;20.40;14.32;;;14.70;99.90;;;;;;5092509;28;20435;-72
2022/10/11 10:06:43;;;;;;;21.65;15.05;;;14.70;99.90;;;;;;5075540;22;20432;-73
2022/10/11 10:09:24;;;;;;;21.37;14.80;;;14.70;99.90;;;;;;5053015;28;20378;-74
2022/10/11 10:11:50;;;;;;;18.15;14.05;;;14.70;99.90;;;;;;5052983;28;20369;-73
2022/10/11 10:14:27;;;;;;;16.02;14.32;;;14.70;99.90;;;;;;5037160;28;20484;-73
2022/10/11 10:17:07;;;;;;;20.15;14.70;;;14.70;99.90;;;;;;5032874;28;20426;-72
2022/10/11 10:19:41;;;;;;;18.83;13.48;;;14.70;99.90;;;;;;5042548;28;20419;-72
2022/10/11 10:22:19;;;;;;;19.85;15.18;;;14.70;99.90;;;;;;5046115;28;20379;-73
2022/10/11 10:24:47;;;;;;;18.67;14.48;;;14.60;99.90;;;;;;5032524;28;20441;-73
2022/10/11 10:27:17;;;;;;;19.63;14.57;;;14.70;99.90;;;;;;5033122;28;20379;-73
2022/10/11 10:29:57;;;;;;;21.40;15.00;;;14.70;99.90;;;;;;5046542;28;20397;-73
2022/10/11 10:32:29;;;;;;;21.92;16.13;;;14.70;99.90;;;;;;5051923;28;20416;-73
2022/10/11 10:35:16;;;;;;;23.67;17.88;;;14.80;99.90;;;;;;5052114;28;20428;-73
2022/10/11 10:37:44;;;;;;;25.95;18.58;;;14.70;99.90;;;;;;5052416;28;20377;-72
2022/10/11 10:40:20;;;;;;;23.13;18.55;;;14.80;99.90;;;;;;5050687;28;20417;-72
2022/10/11 10:42:45;;;;;;;26.13;18.77;;;14.80;99.90;;;;;;5051421;28;20424;-73
2022/10/11 10:45:16;;;;;;;22.35;18.25;;;14.90;99.90;;;;;;5051999;28;20393;-74
2022/10/11 10:47:50;;;;;;;24.00;18.20;;;14.80;99.90;;;;;;5052400;28;20556;-73
2022/10/11 10:50:39;;;;;;;21.35;18.67;;;14.90;99.90;;;;;;5052553;28;20400;-73
2022/10/11 10:53:38;;;;;;;22.88;19.75;;;14.90;99.90;;;;;;5051968;28;20389;-73
2022/10/11 10:56:14;;;;;;;24.63;20.30;;;15.00;99.90;;;;;;5051909;28;20389;-72
2022/10/11 10:58:58;;;;;;;28.20;21.05;;;15.00;99.90;;;;;;5050533;28;20736;-73
2022/10/11 11:01:30;;;;;;;26.50;21.88;;;15.00;99.90;;;;;;5052629;28;20385;-73
2022/10/11 11:04:06;;;;;;;28.70;21.83;;;14.90;99.90;;;;;;5051528;28;20492;-72
2022/10/11 11:06:58;;;;;;;27.10;20.70;;;15.00;99.90;;;;;;5052062;28;20385;-73
2022/10/11 11:09:47;;;;;;;28.10;21.00;;;14.90;99.90;;;;;;5052591;28;20425;-72
2022/10/11 11:12:34;;;;;;;26.20;20.70;;;15.00;99.90;;;;;;5053210;28;20894;-73
2022/10/11 11:15:07;;;;;;;26.98;21.55;;;15.00;99.90;;;;;;5051933;28;20416;-73
2022/10/11 11:17:50;;;;;;;24.80;20.90;;;15.10;99.90;;;;;;5051606;28;20436;-73
2022/10/11 11:20:41;;;;;;;25.23;20.75;;;15.10;99.90;;;;;;5051354;28;20740;-73
2022/10/11 11:23:31;;;;;;;25.65;19.80;;;15.10;99.90;;;;;;5035568;28;20380;-73
2022/10/11 11:26:22;;;;;;;22.83;20.30;;;15.20;99.90;;;;;;5030950;28;20935;-73
2022/10/11 11:29:17;;;;;;;26.02;20.25;;;15.20;99.90;;;;;;5036207;28;20946;-73
2022/10/11 11:31:51;;;;;;;24.48;19.38;;;15.20;99.90;;;;;;5046068;28;20422;-73
2022/10/11 11:34:28;;;;;;;22.08;19.30;;;15.20;99.90;;;;;;5039866;28;20768;-74
2022/10/11 11:37:02;;;;;;;21.87;19.27;;;15.30;99.90;;;;;;5048397;28;20912;-74
2022/10/11 11:39:34;;;;;;;22.42;18.67;;;15.30;99.90;;;;;;5045069;28;20543;-74
2022/10/11 11:42:12;;;;;;;22.08;18.88;;;15.30;99.90;;;;;;5050977;28;20465;-73
2022/10/11 11:44:43;;;;;;;23.42;18.08;;;15.40;99.90;;;;;;5047391;28;20413;-74
2022/10/11 11:47:16;;;;;;;20.92;18.40;;;15.40;99.90;;;;;;5042421;28;20392;-74
2022/10/11 11:49:55;;;;;;;26.23;18.75;;;15.40;99.90;;;;;;5050458;28;20393;-73
2022/10/11 11:52:39;;;;;;;23.17;17.17;;;15.50;99.90;;;;;;5050606;28;20463;-73
2022/10/11 11:55:13;;;;;;;20.02;17.60;;;15.30;99.90;;;;;;5050114;28;20408;-74
2022/10/11 11:58:03;;;;;;;20.35;17.02;;;15.30;99.90;;;;;;5050722;28;20389;-74
2022/10/11 12:00:39;;;;;;;25.63;17.98;;;15.40;99.90;;;;;;5050527;28;20377;-73
2022/10/11 12:03:22;;;;;;;21.17;16.05;;;15.50;99.90;;;;;;5049623;28;20389;-73
2022/10/11 12:06:36;;;;;;;20.38;15.68;;;15.50;99.90;;;;;;5049975;28;20776;-73
2022/10/11 12:09:05;;;;;;;17.52;15.50;;;15.50;99.90;;;;;;5044790;28;20400;-73
2022/10/11 12:11:37;;;;;;;20.85;16.65;;;15.60;99.90;;;;;;5042204;28;20409;-72
2022/10/11 12:14:26;;;;;;;17.93;16.00;;;15.40;99.90;;;;;;5039217;28;20463;-72
2022/10/11 12:17:10;;;;;;;22.45;15.70;;;15.50;99.90;;;;;;5043656;28;20401;-73
2022/10/11 12:19:39;;;;;;;20.17;15.30;;;15.50;99.90;;;;;;5037936;28;20449;-74
2022/10/11 12:22:27;;;;;;;19.13;15.50;;;15.50;99.90;;;;;;5048310;28;20459;-73
2022/10/11 12:25:21;;;;;;;16.70;14.18;;;15.50;99.90;;;;;;5047171;28;20810;-73
2022/10/11 12:27:53;;;;;;;21.27;14.20;;;15.50;99.90;;;;;;5048202;28;20935;-75
2022/10/11 12:30:43;;;;;;;18.38;13.30;;;15.60;99.90;;;;;;5040776;28;20405;-74
2022/10/11 12:33:31;;;;;;;16.13;13.10;;;15.70;99.90;;;;;;5039857;28;20403;-73
2022/10/11 12:36:01;;;;;;;16.98;12.70;;;15.80;99.90;;;;;;5038323;28;20473;-72
2022/10/11 12:38:34;;;;;;;15.93;11.93;;;15.80;99.90;;;;;;5041998;28;20905;-73
2022/10/11 12:41:08;;;;;;;15.93;12.70;;;15.70;99.90;;;;;;5045888;28;20455;-73
2022/10/11 12:43:46;;;;;;;14.93;11.45;;;15.70;99.90;;;;;;5043933;28;20913;-73
2022/10/11 12:46:27;;;;;;;13.35;10.65;;;15.80;99.90;;;;;;5042904;28;20441;-73
2022/10/11 12:49:17;;;;;;;14.73;11.05;;;15.70;99.90;;;;;;5046909;28;20884;-73
2022/10/11 12:52:01;;;;;;;12.32;10.25;;;15.60;99.90;;;;;;5043407;28;20383;-73
2022/10/11 12:54:49;;;;;;;13.20;10.50;;;15.80;99.90;;;;;;5046994;28;20404;-73
2022/10/11 12:57:29;;;;;;;15.63;9.73;;;15.60;99.90;;;;;;5044408;28;20466;-73
2022/10/11 13:00:14;;;;;;;14.90;10.00;;;15.60;99.90;;;;;;5044560;28;20404;-73
2022/10/11 13:02:41;;;;;;;13.23;10.18;;;15.70;99.90;;;;;;5045633;28;20399;-73
2022/10/11 13:05:14;;;;;;;13.40;9.60;;;15.60;99.90;;;;;;5042740;28;20463;-73